Time;durP1;ratioP1;P1;durP2;ratioP2;P2;SDS_P1;SDS_P2;PMS_P1;PMS_P2;Temp;Humidity;BMP_temperature;BMP_pressure;BME280_temperature;BME280_humidity;BME280_pressure;Samples;Min_cycle;Max_cycle;Signal;HPM_P1;HPM_P2
2023/06/11 00:00:11;;;;;;;9.27;4.28;;;20.50;81.00;;;;;;5052291;28;20089;-78
2023/06/11 00:02:41;;;;;;;8.25;4.45;;;20.50;81.40;;;;;;5036859;28;20083;-78
2023/06/11 00:05:07;;;;;;;7.53;4.65;;;20.40;81.50;;;;;;5052139;28;20044;-78
2023/06/11 00:07:37;;;;;;;9.40;4.55;;;20.40;81.90;;;;;;5043826;28;20484;-78
2023/06/11 00:10:04;;;;;;;7.75;4.90;;;20.40;82.30;;;;;;5034789;28;20041;-78
2023/06/11 00:12:29;;;;;;;8.55;5.18;;;20.30;82.30;;;;;;5038264;28;20045;-78
2023/06/11 00:14:55;;;;;;;13.23;5.25;;;20.40;82.60;;;;;;5031432;28;20519;-78
2023/06/11 00:17:21;;;;;;;8.43;5.22;;;20.30;82.80;;;;;;5043889;28;20460;-78
2023/06/11 00:19:47;;;;;;;8.82;5.35;;;20.30;82.80;;;;;;5040721;28;20129;-78
2023/06/11 00:22:14;;;;;;;9.27;4.95;;;20.30;83.10;;;;;;5048275;28;20032;-78
2023/06/11 00:24:41;;;;;;;7.35;5.32;;;20.20;83.30;;;;;;5040555;28;20068;-78
2023/06/11 00:27:06;;;;;;;10.38;5.72;;;20.20;83.60;;;;;;5039162;28;20392;-78
2023/06/11 00:29:32;;;;;;;9.70;6.10;;;20.20;83.80;;;;;;5041356;28;20036;-78
2023/06/11 00:31:58;;;;;;;9.60;6.20;;;20.20;83.80;;;;;;5026858;28;20041;-78
2023/06/11 00:34:23;;;;;;;9.65;6.15;;;20.10;83.90;;;;;;5047316;28;20492;-78
2023/06/11 00:36:49;;;;;;;11.20;5.50;;;20.10;84.10;;;;;;5021516;28;20041;-78
2023/06/11 00:39:14;;;;;;;10.68;5.78;;;20.20;84.30;;;;;;5041432;28;20025;-78
2023/06/11 00:41:45;;;;;;;10.07;6.40;;;20.10;84.50;;;;;;5043460;28;20037;-78
2023/06/11 00:44:17;;;;;;;12.55;7.15;;;20.10;84.60;;;;;;5024591;28;20036;-78
2023/06/11 00:46:47;;;;;;;;;;;20.00;84.90;;;;;;5046422;28;20056;-77
2023/06/11 00:49:13;;;;;;;9.73;7.20;;;20.00;85.10;;;;;;5038284;28;20011;-77
2023/06/11 00:51:43;;;;;;;9.25;7.35;;;20.00;84.90;;;;;;5049205;28;20105;-78
2023/06/11 00:54:16;;;;;;;12.57;8.18;;;20.00;85.00;;;;;;5018458;28;20033;-77
2023/06/11 00:56:48;;;;;;;12.10;7.90;;;20.00;85.30;;;;;;5037172;28;20489;-78
2023/06/11 00:59:17;;;;;;;11.32;7.82;;;20.00;85.50;;;;;;5035006;28;20048;-78
2023/06/11 01:01:56;;;;;;;12.10;8.45;;;20.00;85.50;;;;;;5043652;28;20123;-78
2023/06/11 01:04:23;;;;;;;10.40;7.68;;;20.10;86.30;;;;;;5048823;28;20067;-78
2023/06/11 01:06:54;;;;;;;11.95;8.45;;;20.10;86.10;;;;;;5025961;28;20045;-78
2023/06/11 01:09:22;;;;;;;10.18;8.02;;;20.10;86.20;;;;;;5023150;28;20048;-78
2023/06/11 01:11:53;;;;;;;12.20;8.18;;;20.10;86.40;;;;;;5043163;28;20041;-78
2023/06/11 01:14:20;;;;;;;14.30;8.23;;;20.00;86.40;;;;;;5040872;28;20097;-78
2023/06/11 01:17:04;;;;;;;11.27;8.07;;;20.10;86.70;;;;;;5034864;28;20047;-78
2023/06/11 01:19:52;;;;;;;11.50;8.23;;;20.10;87.00;;;;;;5040882;28;20132;-78
2023/06/11 01:22:41;;;;;;;12.88;8.60;;;20.10;87.20;;;;;;5056715;28;20032;-78
2023/06/11 01:25:20;;;;;;;12.43;8.77;;;20.00;87.30;;;;;;5029413;28;20072;-78
2023/06/11 01:27:56;;;;;;;11.00;7.70;;;20.00;87.40;;;;;;5046355;28;20504;-78
2023/06/11 01:30:23;;;;;;;12.10;9.02;;;20.00;87.40;;;;;;5032914;28;20045;-78
2023/06/11 01:32:55;;;;;;;12.57;8.80;;;20.00;87.40;;;;;;5049518;28;20083;-78
2023/06/11 01:35:21;;;;;;;;;;;19.80;87.50;;;;;;5056518;28;20046;-78
2023/06/11 01:37:55;;;;;;;15.23;8.20;;;20.00;88.20;;;;;;5057396;28;20411;-78
2023/06/11 01:40:21;;;;;;;10.02;8.40;;;19.90;87.60;;;;;;5026989;28;20025;-78
2023/06/11 01:42:47;;;;;;;11.65;7.70;;;20.10;87.80;;;;;;5047228;28;20049;-78
2023/06/11 01:45:13;;;;;;;11.88;8.23;;;19.90;87.80;;;;;;5041569;28;20094;-78
2023/06/11 01:47:38;;;;;;;11.27;8.27;;;19.90;88.00;;;;;;5058008;28;20040;-78
2023/06/11 01:50:04;;;;;;;11.15;8.23;;;19.90;88.30;;;;;;5017029;28;20447;-78
2023/06/11 01:52:30;;;;;;;9.23;8.15;;;19.90;88.30;;;;;;5047336;28;20052;-78
2023/06/11 01:54:55;;;;;;;10.27;8.00;;;19.90;88.50;;;;;;5043687;28;20416;-78
2023/06/11 01:57:21;;;;;;;9.45;7.90;;;19.90;88.60;;;;;;5041394;28;20076;-78
2023/06/11 01:59:46;;;;;;;11.65;8.25;;;19.80;88.60;;;;;;5035464;28;20382;-78
2023/06/11 02:02:12;;;;;;;15.95;8.43;;;19.80;88.80;;;;;;5040036;28;20032;-78
2023/06/11 02:04:38;;;;;;;9.27;7.82;;;19.80;88.90;;;;;;5045947;28;20045;-79
2023/06/11 02:07:03;;;;;;;10.98;8.30;;;19.80;89.00;;;;;;5046919;28;20091;-78
2023/06/11 02:09:29;;;;;;;10.18;7.65;;;19.80;89.70;;;;;;5041761;28;20523;-78
2023/06/11 02:11:55;;;;;;;10.07;8.38;;;19.80;89.00;;;;;;5046600;28;20052;-78
2023/06/11 02:14:20;;;;;;;10.52;8.10;;;19.80;89.30;;;;;;5061034;28;20534;-78
2023/06/11 02:16:46;;;;;;;10.02;8.27;;;19.80;89.40;;;;;;5050260;28;20036;-78
2023/06/11 02:19:12;;;;;;;9.80;8.00;;;19.70;89.50;;;;;;5031879;28;20155;-78
2023/06/11 02:21:37;;;;;;;10.90;8.15;;;19.70;89.50;;;;;;5044601;28;20068;-78
2023/06/11 02:24:03;;;;;;;12.30;8.55;;;19.70;89.60;;;;;;5043261;28;20071;-78
2023/06/11 02:26:29;;;;;;;11.65;8.70;;;19.70;89.80;;;;;;5031101;28;20032;-78
2023/06/11 02:28:54;;;;;;;10.98;8.00;;;19.70;89.80;;;;;;5043379;28;20073;-78
2023/06/11 02:31:20;;;;;;;9.73;8.20;;;19.60;89.80;;;;;;5032043;28;20037;-78
2023/06/11 02:33:46;;;;;;;11.40;7.97;;;19.60;89.90;;;;;;5042828;28;20507;-78
2023/06/11 02:36:11;;;;;;;12.13;7.82;;;19.60;90.00;;;;;;5036777;28;20037;-78
2023/06/11 02:38:37;;;;;;;10.32;8.02;;;19.60;90.00;;;;;;5034251;28;20504;-78
2023/06/11 02:41:02;;;;;;;13.05;9.00;;;19.60;90.10;;;;;;5046472;28;20033;-78
2023/06/11 02:43:28;;;;;;;10.00;8.15;;;19.50;90.10;;;;;;5047446;28;20040;-78
2023/06/11 02:45:53;;;;;;;10.13;8.50;;;19.60;90.20;;;;;;5049933;28;20078;-78
2023/06/11 02:48:19;;;;;;;11.73;7.80;;;19.50;90.20;;;;;;5041631;22;20082;-76
2023/06/11 02:50:45;;;;;;;12.73;8.40;;;19.60;90.30;;;;;;5012729;28;20037;-77
2023/06/11 02:53:10;;;;;;;13.35;8.70;;;19.50;90.30;;;;;;5013173;28;20104;-76
2023/06/11 02:55:36;;;;;;;11.93;8.82;;;19.50;90.40;;;;;;5016677;28;20034;-77
2023/06/11 02:58:01;;;;;;;8.85;7.95;;;19.50;90.40;;;;;;4994350;28;20083;-77
2023/06/11 03:00:27;;;;;;;9.93;8.23;;;19.50;90.50;;;;;;4992140;28;20064;-77
2023/06/11 03:02:54;;;;;;;10.45;8.20;;;19.50;90.50;;;;;;4977592;28;20042;-77
2023/06/11 03:05:21;;;;;;;9.57;8.57;;;19.50;90.60;;;;;;4978149;28;20038;-77
2023/06/11 03:07:47;;;;;;;9.82;8.80;;;19.40;90.50;;;;;;4991383;28;20053;-77
2023/06/11 03:10:13;;;;;;;10.40;8.73;;;19.40;90.60;;;;;;5015519;28;20121;-77
2023/06/11 03:12:39;;;;;;;12.27;8.60;;;19.40;90.70;;;;;;5005099;28;20112;-77
2023/06/11 03:15:05;;;;;;;12.75;8.80;;;19.60;90.70;;;;;;5028378;28;20037;-78
2023/06/11 03:17:31;;;;;;;13.32;8.75;;;19.40;90.70;;;;;;5010885;28;20025;-77
2023/06/11 03:19:57;;;;;;;14.35;8.82;;;19.30;90.70;;;;;;4983513;28;20543;-77
2023/06/11 03:22:23;;;;;;;13.07;8.50;;;19.30;90.80;;;;;;4983053;28;20045;-77
2023/06/11 03:24:48;;;;;;;10.15;8.40;;;19.30;90.80;;;;;;4991463;28;20437;-77
2023/06/11 03:27:15;;;;;;;13.13;8.60;;;19.30;90.90;;;;;;4995827;28;20107;-77
2023/06/11 03:29:43;;;;;;;11.13;8.30;;;19.30;90.90;;;;;;4997350;28;20053;-77
2023/06/11 03:32:09;;;;;;;10.63;8.50;;;19.30;90.90;;;;;;5016694;28;20104;-77
2023/06/11 03:34:35;;;;;;;10.00;8.52;;;19.30;91.10;;;;;;5004449;28;20526;-77
2023/06/11 03:37:01;;;;;;;10.35;8.63;;;19.20;91.10;;;;;;4996561;28;20127;-77
2023/06/11 03:39:27;;;;;;;9.35;8.45;;;19.20;91.20;;;;;;5000039;28;20405;-77
2023/06/11 03:41:53;;;;;;;12.32;8.93;;;19.20;91.20;;;;;;4990282;28;20034;-77
2023/06/11 03:44:19;;;;;;;12.10;8.77;;;19.20;91.30;;;;;;4998237;28;20125;-77
2023/06/11 03:46:46;;;;;;;11.23;8.35;;;19.20;91.40;;;;;;4995621;28;20096;-77
2023/06/11 03:49:12;;;;;;;10.85;8.73;;;19.10;91.40;;;;;;4981479;28;20050;-77
2023/06/11 03:51:38;;;;;;;10.63;8.40;;;19.10;91.70;;;;;;4994997;28;20045;-77
2023/06/11 03:54:03;;;;;;;13.68;8.77;;;19.10;91.50;;;;;;5018841;28;20067;-77
2023/06/11 03:56:30;;;;;;;11.38;8.85;;;19.10;91.60;;;;;;5001323;28;20092;-77
2023/06/11 03:58:56;;;;;;;11.57;8.98;;;19.10;91.60;;;;;;4984430;28;20042;-77
2023/06/11 04:01:21;;;;;;;11.27;9.52;;;19.10;91.60;;;;;;4994593;28;20107;-77
2023/06/11 04:03:47;;;;;;;11.63;8.98;;;19.10;91.70;;;;;;4987458;28;20065;-77
2023/06/11 04:06:13;;;;;;;11.93;9.07;;;19.10;91.80;;;;;;4996742;28;20066;-77
2023/06/11 04:08:39;;;;;;;11.23;9.07;;;19.10;92.10;;;;;;4998116;28;20604;-77
2023/06/11 04:11:06;;;;;;;11.55;9.20;;;19.10;91.90;;;;;;4981809;28;20037;-78
2023/06/11 04:13:32;;;;;;;12.73;9.38;;;19.10;92.00;;;;;;4993031;28;20042;-77
2023/06/11 04:15:57;;;;;;;13.25;9.73;;;19.10;92.00;;;;;;5003195;28;20034;-77
2023/06/11 04:18:23;;;;;;;12.05;8.85;;;19.10;92.20;;;;;;4995677;28;20038;-78
2023/06/11 04:20:49;;;;;;;11.95;8.73;;;19.10;92.20;;;;;;5012952;28;20034;-78
2023/06/11 04:23:14;;;;;;;12.32;9.50;;;19.10;92.30;;;;;;4995668;28;20038;-77
2023/06/11 04:25:40;;;;;;;11.60;9.25;;;18.90;92.20;;;;;;5001950;28;20493;-77
2023/06/11 04:28:05;;;;;;;10.02;8.98;;;19.00;92.40;;;;;;5004283;28;20497;-77
2023/06/11 04:30:33;;;;;;;11.18;8.80;;;19.10;92.50;;;;;;4991696;28;20398;-78
2023/06/11 04:33:03;;;;;;;10.88;8.43;;;19.00;92.50;;;;;;4990275;28;20033;-77
2023/06/11 04:35:29;;;;;;;10.52;8.57;;;18.60;92.50;;;;;;5000429;28;20445;-77
2023/06/11 04:37:55;;;;;;;13.35;9.20;;;19.00;92.60;;;;;;5008921;28;20494;-77
2023/06/11 04:40:23;;;;;;;12.25;9.35;;;19.00;92.70;;;;;;4996590;28;20034;-77
2023/06/11 04:42:49;;;;;;;10.48;9.32;;;19.00;92.80;;;;;;5004985;28;20034;-77
2023/06/11 04:45:18;;;;;;;10.38;9.00;;;19.10;92.80;;;;;;5006672;28;20045;-76
2023/06/11 04:47:45;;;;;;;11.77;9.32;;;19.10;92.90;;;;;;4994595;28;20415;-76
2023/06/11 04:50:11;;;;;;;12.48;8.77;;;19.00;92.90;;;;;;4998812;28;20121;-76
2023/06/11 04:52:42;;;;;;;10.57;9.38;;;19.10;93.00;;;;;;5002048;28;20094;-76
2023/06/11 04:55:16;;;;;;;11.85;9.73;;;19.00;93.00;;;;;;4993973;28;20175;-76
2023/06/11 04:57:42;;;;;;;11.73;9.45;;;19.10;93.20;;;;;;5026342;28;20056;-77
2023/06/11 05:00:09;;;;;;;11.45;9.30;;;19.10;93.20;;;;;;4995492;28;20041;-77
2023/06/11 05:02:38;;;;;;;10.88;9.05;;;19.10;93.30;;;;;;5002342;28;20049;-77
2023/06/11 05:05:13;;;;;;;13.52;10.35;;;19.20;93.40;;;;;;5024880;28;20041;-77
2023/06/11 05:07:39;;;;;;;12.93;9.50;;;19.10;93.50;;;;;;5028194;28;20041;-77
2023/06/11 05:10:06;;;;;;;11.20;9.77;;;19.10;93.50;;;;;;4992895;28;20034;-77
2023/06/11 05:12:32;;;;;;;13.05;9.95;;;19.10;93.60;;;;;;4995165;28;20120;-77
2023/06/11 05:14:58;;;;;;;12.88;10.10;;;19.10;93.50;;;;;;4997204;28;20554;-77
2023/06/11 05:17:24;;;;;;;12.35;10.15;;;19.20;93.60;;;;;;4986117;28;20149;-77
2023/06/11 05:19:51;;;;;;;12.15;10.40;;;19.20;93.60;;;;;;4979556;28;20421;-77
2023/06/11 05:22:20;;;;;;;11.57;9.85;;;19.20;93.70;;;;;;4997484;28;20514;-77
2023/06/11 05:24:47;;;;;;;11.98;10.55;;;19.20;93.70;;;;;;4986851;28;20045;-76
2023/06/11 05:27:13;;;;;;;11.32;9.77;;;19.50;93.80;;;;;;5007856;28;20425;-77
2023/06/11 05:29:40;;;;;;;11.48;10.07;;;19.20;93.80;;;;;;5015109;28;20109;-77
2023/06/11 05:32:08;;;;;;;12.43;10.55;;;19.30;93.90;;;;;;4976762;28;20502;-77
2023/06/11 05:34:34;;;;;;;11.90;10.25;;;19.30;93.90;;;;;;5000909;28;20505;-77
2023/06/11 05:37:00;;;;;;;14.63;10.95;;;19.30;94.10;;;;;;4997094;28;20041;-77
2023/06/11 05:39:26;;;;;;;11.93;10.23;;;19.30;94.10;;;;;;4992511;28;20077;-77
2023/06/11 05:41:52;;;;;;;12.90;10.95;;;19.40;94.10;;;;;;4979232;28;20068;-77
2023/06/11 05:44:17;;;;;;;13.45;11.70;;;19.30;94.20;;;;;;4997992;28;20441;-77
2023/06/11 05:46:43;;;;;;;13.95;10.50;;;20.00;94.40;;;;;;4995497;28;20045;-77
2023/06/11 05:49:10;;;;;;;12.68;11.30;;;19.80;94.30;;;;;;5001329;28;20033;-77
2023/06/11 05:51:36;;;;;;;13.10;11.00;;;19.40;94.40;;;;;;4977852;28;20070;-77
2023/06/11 05:54:04;;;;;;;13.77;11.27;;;19.50;94.40;;;;;;5000934;28;20394;-77
2023/06/11 05:56:30;;;;;;;12.85;10.95;;;19.80;94.50;;;;;;5004496;28;20034;-77
2023/06/11 05:58:56;;;;;;;12.02;10.82;;;19.50;94.50;;;;;;5018222;28;20087;-77
2023/06/11 06:01:22;;;;;;;13.30;10.77;;;19.50;94.60;;;;;;4969930;28;20058;-77
2023/06/11 06:03:47;;;;;;;12.48;10.23;;;19.60;94.60;;;;;;4982451;28;20124;-77
2023/06/11 06:06:13;;;;;;;13.05;10.63;;;19.60;94.60;;;;;;4998464;28;20128;-77
2023/06/11 06:08:39;;;;;;;14.20;10.85;;;19.90;94.70;;;;;;5009016;28;20053;-77
2023/06/11 06:11:04;;;;;;;17.17;10.93;;;19.60;94.60;;;;;;4996700;28;20045;-77
2023/06/11 06:13:30;;;;;;;11.45;10.25;;;20.00;94.80;;;;;;5023244;28;20131;-77
2023/06/11 06:15:55;;;;;;;12.60;10.40;;;19.70;94.60;;;;;;4977984;28;20037;-77
2023/06/11 06:18:22;;;;;;;12.55;11.25;;;19.70;94.60;;;;;;4978078;28;20092;-77
2023/06/11 06:20:47;;;;;;;14.07;10.60;;;19.70;94.60;;;;;;4989142;28;20491;-78
2023/06/11 06:23:13;;;;;;;12.07;9.57;;;19.60;94.50;;;;;;5000708;28;20040;-78
2023/06/11 06:25:41;;;;;;;11.98;10.75;;;19.80;94.40;;;;;;4992652;28;20096;-79
2023/06/11 06:28:06;;;;;;;13.35;10.32;;;20.20;94.60;;;;;;5015351;28;20037;-79
2023/06/11 06:30:33;;;;;;;12.80;10.82;;;20.30;94.60;;;;;;4971121;28;20044;-79
2023/06/11 06:32:59;;;;;;;13.25;11.40;;;20.00;94.50;;;;;;5018867;28;20485;-79
2023/06/11 06:35:25;;;;;;;13.35;10.00;;;20.10;94.50;;;;;;5015346;28;20102;-78
2023/06/11 06:37:50;;;;;;;12.60;10.95;;;20.60;94.50;;;;;;4997487;28;20301;-79
2023/06/11 06:40:16;;;;;;;12.27;10.30;;;20.10;94.50;;;;;;4977689;28;20033;-78
2023/06/11 06:42:42;;;;;;;11.32;10.20;;;20.20;94.50;;;;;;5015085;28;20464;-79
2023/06/11 06:45:08;;;;;;;13.88;10.10;;;20.60;94.60;;;;;;4988605;28;20038;-78
2023/06/11 06:47:34;;;;;;;11.70;9.98;;;20.30;94.60;;;;;;5001543;28;20088;-79
2023/06/11 06:50:00;;;;;;;12.00;9.98;;;20.40;94.50;;;;;;4976366;28;20049;-78
2023/06/11 06:52:26;;;;;;;15.45;10.35;;;20.40;94.50;;;;;;5021007;28;20029;-79
2023/06/11 06:54:52;;;;;;;11.50;9.93;;;20.50;94.60;;;;;;4990955;28;20053;-79
2023/06/11 06:57:18;;;;;;;13.38;9.70;;;20.90;94.60;;;;;;5005204;28;20033;-78
2023/06/11 06:59:44;;;;;;;10.55;9.35;;;20.60;94.40;;;;;;4978990;28;20049;-78
2023/06/11 07:02:09;;;;;;;13.80;10.25;;;20.70;94.30;;;;;;5021561;28;20122;-77
2023/06/11 07:04:35;;;;;;;15.65;10.80;;;20.60;94.20;;;;;;5005428;28;20036;-79
2023/06/11 07:07:01;;;;;;;12.27;9.85;;;20.80;94.30;;;;;;4983048;28;20409;-79
2023/06/11 07:09:29;;;;;;;12.93;9.95;;;21.00;94.30;;;;;;4996517;28;20041;-79
2023/06/11 07:11:54;;;;;;;11.43;10.15;;;20.90;94.40;;;;;;4985370;28;20045;-78
2023/06/11 07:14:20;;;;;;;11.65;10.45;;;21.10;94.40;;;;;;5025524;28;20041;-79
2023/06/11 07:16:46;;;;;;;10.65;9.48;;;20.90;94.40;;;;;;5026183;28;20109;-78
2023/06/11 07:19:14;;;;;;;11.35;10.15;;;21.10;94.40;;;;;;5023288;28;20037;-78
2023/06/11 07:21:40;;;;;;;14.68;10.30;;;21.10;94.40;;;;;;4989381;28;20052;-78
2023/06/11 07:24:07;;;;;;;11.98;9.38;;;21.20;94.40;;;;;;5012895;28;20711;-78
2023/06/11 07:26:33;;;;;;;12.38;9.95;;;21.20;94.20;;;;;;5014566;28;20082;-77
2023/06/11 07:28:59;;;;;;;10.90;9.05;;;21.50;94.20;;;;;;5011580;28;20089;-78
2023/06/11 07:31:26;;;;;;;12.10;10.25;;;21.40;94.10;;;;;;4978032;28;20084;-78
2023/06/11 07:33:52;;;;;;;13.52;9.85;;;21.50;94.00;;;;;;5020086;28;20034;-78
2023/06/11 07:36:18;;;;;;;12.00;9.98;;;21.50;93.90;;;;;;5012694;28;20073;-78
2023/06/11 07:38:45;;;;;;;14.82;9.50;;;21.60;93.90;;;;;;5012679;28;20104;-78
2023/06/11 07:41:12;;;;;;;11.65;9.02;;;21.60;93.80;;;;;;5007615;28;20034;-78
2023/06/11 07:43:38;;;;;;;11.45;10.02;;;21.80;93.80;;;;;;4992410;28;20088;-78
2023/06/11 07:46:04;;;;;;;12.02;9.15;;;21.80;93.70;;;;;;5011871;28;20034;-78
2023/06/11 07:48:30;;;;;;;11.27;9.27;;;21.60;93.70;;;;;;5009217;28;20116;-78
2023/06/11 07:50:56;;;;;;;10.43;9.32;;;21.90;93.70;;;;;;5015705;28;20459;-78
2023/06/11 07:53:22;;;;;;;12.52;9.18;;;22.10;93.70;;;;;;5010960;28;20414;-78
2023/06/11 07:55:54;;;;;;;12.57;9.15;;;22.10;93.80;;;;;;5020359;28;20040;-78
2023/06/11 07:58:20;;;;;;;10.60;9.25;;;22.50;93.70;;;;;;5010255;28;20079;-78
2023/06/11 08:00:45;;;;;;;11.90;9.40;;;22.30;93.70;;;;;;5014152;28;20037;-78
2023/06/11 08:03:11;;;;;;;12.05;9.77;;;22.40;93.80;;;;;;5018887;28;20034;-76
2023/06/11 08:05:37;;;;;;;12.25;8.65;;;22.50;93.70;;;;;;4994869;28;20080;-79
2023/06/11 08:08:03;;;;;;;12.73;8.93;;;22.50;93.60;;;;;;5004831;28;20045;-79
2023/06/11 08:10:28;;;;;;;11.63;8.90;;;22.70;93.50;;;;;;5011744;28;20038;-79
2023/06/11 08:12:54;;;;;;;13.45;9.02;;;22.80;93.50;;;;;;4986727;28;20509;-79
2023/06/11 08:15:20;;;;;;;11.13;8.93;;;23.00;93.20;;;;;;5012083;28;20034;-79
2023/06/11 08:17:46;;;;;;;10.25;8.50;;;23.10;93.00;;;;;;5012005;28;20038;-79
2023/06/11 08:20:11;;;;;;;11.10;8.45;;;23.30;92.80;;;;;;4980559;28;20042;-80
2023/06/11 08:22:37;;;;;;;11.60;9.45;;;23.60;92.50;;;;;;5000219;28;20410;-80
2023/06/11 08:25:03;;;;;;;12.95;8.68;;;24.10;92.20;;;;;;5012785;28;20084;-78
2023/06/11 08:27:29;;;;;;;9.75;7.90;;;24.10;91.80;;;;;;4997602;28;20042;-79
2023/06/11 08:29:55;;;;;;;10.95;7.85;;;24.30;91.60;;;;;;5012220;28;20178;-77
2023/06/11 08:32:20;;;;;;;10.00;7.72;;;24.60;91.30;;;;;;4983932;28;20034;-77
2023/06/11 08:34:46;;;;;;;8.95;8.05;;;25.00;91.10;;;;;;5010232;28;20042;-78
2023/06/11 08:37:12;;;;;;;11.98;8.52;;;25.00;90.50;;;;;;4979477;28;20030;-78
2023/06/11 08:39:37;;;;;;;11.70;7.88;;;25.30;90.30;;;;;;5001897;28;20513;-78
2023/06/11 08:42:03;;;;;;;9.77;7.50;;;25.60;88.70;;;;;;4996609;28;20125;-79
2023/06/11 08:44:32;;;;;;;9.45;7.28;;;25.80;88.70;;;;;;4981779;28;20041;-79
2023/06/11 08:47:01;;;;;;;8.23;7.43;;;26.10;88.40;;;;;;5003653;28;20501;-79
2023/06/11 08:49:29;;;;;;;8.88;6.60;;;26.30;86.40;;;;;;4983208;28;20116;-79
2023/06/11 08:52:01;;;;;;;9.52;7.47;;;26.50;86.30;;;;;;4978452;28;20405;-79
2023/06/11 08:54:27;;;;;;;8.23;7.28;;;26.70;85.60;;;;;;5023494;28;20038;-78
2023/06/11 08:56:53;;;;;;;10.02;6.85;;;26.90;85.40;;;;;;4984173;28;20069;-78
2023/06/11 08:59:19;;;;;;;9.93;6.93;;;27.10;84.70;;;;;;5022989;28;20095;-79
2023/06/11 09:01:50;;;;;;;9.00;7.28;;;27.20;83.40;;;;;;4997095;28;20479;-79
2023/06/11 09:04:20;;;;;;;;;;;27.40;82.90;;;;;;5001259;28;20046;-79
2023/06/11 09:07:00;;;;;;;7.75;6.93;;;27.40;81.60;;;;;;4999249;28;19987;-79
2023/06/11 09:09:26;;;;;;;9.35;7.03;;;27.50;79.20;;;;;;5008767;28;20042;-79
2023/06/11 09:11:52;;;;;;;8.40;7.03;;;27.60;80.30;;;;;;4978714;28;20037;-80
2023/06/11 09:14:19;;;;;;;10.23;6.30;;;27.70;79.40;;;;;;5013285;28;20056;-78
2023/06/11 09:16:46;;;;;;;9.45;6.65;;;27.70;79.70;;;;;;5002611;28;20403;-78
2023/06/11 09:19:20;;;;;;;10.90;6.78;;;27.80;79.20;;;;;;4978585;28;20065;-80
2023/06/11 09:21:56;;;;;;;9.88;7.00;;;28.00;78.90;;;;;;4998063;28;20405;-79
2023/06/11 09:24:23;;;;;;;9.10;7.20;;;28.30;78.20;;;;;;4990727;28;20056;-79
2023/06/11 09:26:57;;;;;;;8.30;6.65;;;28.40;77.40;;;;;;4985668;28;20494;-79
2023/06/11 09:29:24;;;;;;;8.43;6.85;;;28.50;75.00;;;;;;4985804;28;20033;-79
2023/06/11 09:32:08;;;;;;;9.68;6.63;;;28.70;75.40;;;;;;4987517;28;20040;-79
2023/06/11 09:34:34;;;;;;;8.68;6.70;;;28.90;74.70;;;;;;4995244;28;20137;-79
2023/06/11 09:37:03;;;;;;;8.35;6.47;;;29.10;75.60;;;;;;4994545;28;20074;-80
2023/06/11 09:39:30;;;;;;;7.43;6.15;;;29.30;74.70;;;;;;5022033;28;20041;-80
2023/06/11 09:41:55;;;;;;;11.27;6.30;;;29.70;74.00;;;;;;4996540;28;20143;-80
2023/06/11 09:44:23;;;;;;;7.90;6.18;;;29.70;72.60;;;;;;5009656;28;20081;-80
2023/06/11 09:46:50;;;;;;;6.93;6.05;;;29.60;71.60;;;;;;5008502;28;20049;-80
2023/06/11 09:49:16;;;;;;;7.15;5.93;;;29.80;71.50;;;;;;5006218;28;20107;-80
2023/06/11 09:51:47;;;;;;;8.30;6.53;;;29.90;71.20;;;;;;4980708;28;20050;-80
2023/06/11 09:54:12;;;;;;;8.95;6.38;;;30.00;70.70;;;;;;4990207;28;20084;-80
2023/06/11 09:56:38;;;;;;;7.85;6.07;;;30.10;69.80;;;;;;5017492;28;20049;-80
2023/06/11 09:59:07;;;;;;;9.68;6.25;;;30.20;69.80;;;;;;5000259;28;20463;-80
2023/06/11 10:01:33;;;;;;;6.38;5.45;;;30.30;68.60;;;;;;5002562;28;20040;-80
2023/06/11 10:03:59;;;;;;;8.18;6.15;;;30.30;67.40;;;;;;4996824;28;20058;-81
2023/06/11 10:06:33;;;;;;;7.28;5.80;;;30.30;67.70;;;;;;4998984;28;20078;-80
2023/06/11 10:09:03;;;;;;;10.30;6.18;;;30.50;67.30;;;;;;5024737;28;20034;-81
2023/06/11 10:11:38;;;;;;;8.50;6.27;;;30.60;68.00;;;;;;4998251;28;20044;-80
2023/06/11 10:14:04;;;;;;;7.50;5.85;;;30.70;66.50;;;;;;5008927;28;20509;-80
2023/06/11 10:16:31;;;;;;;6.85;5.82;;;30.80;66.20;;;;;;5022064;28;20065;-80
2023/06/11 10:19:10;;;;;;;10.40;6.30;;;30.90;66.20;;;;;;5021271;28;20032;-80
2023/06/11 10:21:50;;;;;;;8.35;6.25;;;30.90;62.50;;;;;;5007828;28;20070;-80
2023/06/11 10:24:27;;;;;;;6.95;6.30;;;31.00;62.90;;;;;;4996568;28;20041;-80
2023/06/11 10:27:13;;;;;;;6.47;5.57;;;31.10;62.90;;;;;;5022448;28;20088;-80
2023/06/11 10:29:49;;;;;;;8.15;5.75;;;31.10;62.10;;;;;;5002084;28;20041;-80
2023/06/11 10:32:21;;;;;;;10.63;6.03;;;31.10;61.30;;;;;;5012721;28;20042;-80
2023/06/11 10:34:58;;;;;;;6.07;5.47;;;31.20;62.00;;;;;;4997356;28;20521;-80
2023/06/11 10:37:32;;;;;;;33.13;7.53;;;31.30;60.10;;;;;;4996519;28;20508;-79
2023/06/11 10:39:59;;;;;;;11.52;5.85;;;31.40;60.70;;;;;;4986318;28;20045;-80
2023/06/11 10:42:27;;;;;;;10.35;5.53;;;31.50;61.20;;;;;;4986353;28;20041;-80
2023/06/11 10:44:57;;;;;;;5.85;5.22;;;31.60;59.80;;;;;;4989534;28;20042;-80
2023/06/11 10:47:24;;;;;;;5.78;5.00;;;31.60;59.10;;;;;;5000171;28;20046;-81
2023/06/11 10:49:50;;;;;;;6.75;4.90;;;31.70;58.20;;;;;;4993657;28;20510;-81
2023/06/11 10:52:16;;;;;;;6.35;5.45;;;31.70;57.60;;;;;;5008590;28;20117;-81
2023/06/11 10:54:45;;;;;;;6.10;5.43;;;31.80;57.40;;;;;;4996158;28;20046;-81
2023/06/11 10:57:11;;;;;;;5.88;5.28;;;31.90;57.40;;;;;;4982704;28;20037;-81
2023/06/11 10:59:38;;;;;;;6.35;5.15;;;32.10;57.30;;;;;;5000597;28;20041;-81
2023/06/11 11:02:03;;;;;;;6.93;5.40;;;32.10;57.00;;;;;;4984938;28;20038;-81
2023/06/11 11:04:29;;;;;;;5.60;4.90;;;32.10;56.50;;;;;;5021236;28;20420;-81
2023/06/11 11:07:09;;;;;;;8.10;5.60;;;32.20;55.90;;;;;;5003962;28;20449;-81
2023/06/11 11:09:35;;;;;;;8.35;5.15;;;32.20;55.20;;;;;;4981684;28;20052;-81
2023/06/11 11:12:01;;;;;;;7.10;5.22;;;32.20;55.20;;;;;;4991991;28;20042;-81
2023/06/11 11:14:29;;;;;;;6.97;5.15;;;32.20;55.00;;;;;;5025998;28;20041;-81
2023/06/11 11:16:55;;;;;;;6.95;5.88;;;32.20;53.50;;;;;;5004400;28;20150;-81
2023/06/11 11:19:24;;;;;;;10.65;5.68;;;32.20;53.40;;;;;;4989671;28;20065;-81
2023/06/11 11:21:51;;;;;;;8.80;5.45;;;32.10;53.40;;;;;;4998053;28;20402;-79
2023/06/11 11:24:17;;;;;;;7.30;4.93;;;32.10;53.80;;;;;;4980688;28;20135;-80
2023/06/11 11:26:45;;;;;;;7.68;5.10;;;32.10;54.40;;;;;;4996939;28;20510;-80
2023/06/11 11:29:11;;;;;;;6.18;5.00;;;32.30;53.50;;;;;;4985086;28;20038;-80
2023/06/11 11:31:38;;;;;;;8.32;5.78;;;32.30;51.80;;;;;;4996797;28;20056;-80
2023/06/11 11:34:04;;;;;;;6.28;5.47;;;32.30;51.60;;;;;;4981249;28;20506;-80
2023/06/11 11:36:31;;;;;;;7.78;5.35;;;32.30;51.50;;;;;;4998864;28;20077;-80
2023/06/11 11:39:07;;;;;;;6.60;5.05;;;32.40;52.00;;;;;;4997918;28;20029;-81
2023/06/11 11:41:43;;;;;;;7.72;5.25;;;32.30;52.20;;;;;;5013824;28;20521;-81
2023/06/11 11:44:09;;;;;;;7.53;5.13;;;32.50;52.30;;;;;;4976602;28;20046;-80
2023/06/11 11:46:37;;;;;;;9.05;5.15;;;32.70;51.00;;;;;;4983826;28;20505;-81
2023/06/11 11:49:02;;;;;;;7.80;5.32;;;32.70;49.10;;;;;;5009385;28;20046;-80
2023/06/11 11:51:29;;;;;;;7.40;5.47;;;32.70;49.50;;;;;;4979862;28;20040;-80
2023/06/11 11:53:54;;;;;;;8.35;5.50;;;32.80;50.50;;;;;;4978824;28;20077;-80
2023/06/11 11:56:20;;;;;;;8.90;5.60;;;32.70;50.90;;;;;;5005991;28;20084;-80
2023/06/11 11:58:46;;;;;;;7.28;5.22;;;32.80;49.50;;;;;;4984835;28;20643;-81
2023/06/11 12:01:21;;;;;;;8.02;5.25;;;32.80;49.40;;;;;;4992989;28;20151;-81
2023/06/11 12:04:01;;;;;;;6.20;5.60;;;32.80;49.70;;;;;;5015587;28;20042;-81
2023/06/11 12:06:27;;;;;;;7.53;5.13;;;32.80;50.20;;;;;;4981458;28;20615;-81
2023/06/11 12:08:52;;;;;;;8.45;5.47;;;32.70;50.20;;;;;;5003767;28;20346;-81
2023/06/11 12:11:20;;;;;;;11.32;5.88;;;32.80;50.30;;;;;;4983259;28;20410;-81
2023/06/11 12:13:46;;;;;;;8.43;5.35;;;32.80;49.20;;;;;;5008065;28;20042;-81
2023/06/11 12:16:12;;;;;;;7.32;5.57;;;32.80;48.40;;;;;;4995678;28;20038;-81
2023/06/11 12:18:37;;;;;;;7.00;5.35;;;32.80;48.50;;;;;;5011408;28;20402;-81
2023/06/11 12:21:05;;;;;;;6.78;5.05;;;32.80;49.10;;;;;;5012158;28;20034;-81
2023/06/11 12:23:31;;;;;;;9.60;5.18;;;32.90;48.60;;;;;;5015018;28;20116;-81
2023/06/11 12:25:57;;;;;;;6.22;5.47;;;33.00;48.50;;;;;;5017403;28;20073;-81
2023/06/11 12:28:22;;;;;;;8.02;5.57;;;33.00;48.80;;;;;;5021519;28;20038;-81
2023/06/11 12:30:48;;;;;;;6.22;5.63;;;33.10;49.20;;;;;;5006838;28;20040;-81
2023/06/11 12:33:15;;;;;;;35.97;7.30;;;33.30;49.90;;;;;;4984452;28;20034;-81
2023/06/11 12:35:43;;;;;;;9.77;5.32;;;33.40;49.70;;;;;;4972550;28;20046;-80
2023/06/11 12:38:10;;;;;;;8.88;5.53;;;33.40;48.50;;;;;;4981339;28;20033;-80
2023/06/11 12:40:36;;;;;;;7.25;5.50;;;33.30;48.40;;;;;;4979300;28;20034;-81